sensor_id;sensor_type;location;lat;lon;timestamp;temperature;humidity
62904;DHT22;49000;50.698;13.322;2022-08-03T00:01:42;16.30;99.80
62904;DHT22;49000;50.698;13.322;2022-08-03T00:04:09;16.30;99.90
62904;DHT22;49000;50.698;13.322;2022-08-03T00:06:35;16.20;99.90
62904;DHT22;49000;50.698;13.322;2022-08-03T00:09:01;16.20;99.90
62904;DHT22;49000;50.698;13.322;2022-08-03T00:11:26;16.20;99.90
62904;DHT22;49000;50.698;13.322;2022-08-03T00:13:52;16.20;99.90
62904;DHT22;49000;50.698;13.322;2022-08-03T00:16:18;16.10;99.90
62904;DHT22;49000;50.698;13.322;2022-08-03T00:18:43;16.10;99.90
62904;DHT22;49000;50.698;13.322;2022-08-03T00:21:09;16.10;99.90
62904;DHT22;49000;50.698;13.322;2022-08-03T00:23:35;16.00;99.90
62904;DHT22;49000;50.698;13.322;2022-08-03T00:26:00;16.00;99.90
62904;DHT22;49000;50.698;13.322;2022-08-03T00:28:26;16.00;99.90
62904;DHT22;49000;50.698;13.322;2022-08-03T00:30:51;16.00;99.90
62904;DHT22;49000;50.698;13.322;2022-08-03T00:33:17;15.90;99.90
62904;DHT22;49000;50.698;13.322;2022-08-03T00:35:43;15.90;99.90
62904;DHT22;49000;50.698;13.322;2022-08-03T00:38:08;15.80;99.90
62904;DHT22;49000;50.698;13.322;2022-08-03T00:40:34;15.80;99.90
62904;DHT22;49000;50.698;13.322;2022-08-03T00:43:05;15.80;99.90
62904;DHT22;49000;50.698;13.322;2022-08-03T00:45:36;15.70;99.90
62904;DHT22;49000;50.698;13.322;2022-08-03T00:48:03;15.70;99.90
62904;DHT22;49000;50.698;13.322;2022-08-03T00:50:31;15.70;99.90
62904;DHT22;49000;50.698;13.322;2022-08-03T00:52:59;15.60;99.90
62904;DHT22;49000;50.698;13.322;2022-08-03T00:55:25;15.60;99.90
62904;DHT22;49000;50.698;13.322;2022-08-03T00:57:51;15.50;99.90
62904;DHT22;49000;50.698;13.322;2022-08-03T01:00:19;15.50;99.90
62904;DHT22;49000;50.698;13.322;2022-08-03T01:02:45;15.50;99.90
62904;DHT22;49000;50.698;13.322;2022-08-03T01:05:11;15.40;99.90
62904;DHT22;49000;50.698;13.322;2022-08-03T01:10:20;15.40;99.90
62904;DHT22;49000;50.698;13.322;2022-08-03T01:13:02;15.30;99.90
62904;DHT22;49000;50.698;13.322;2022-08-03T01:15:42;15.20;99.90
62904;DHT22;49000;50.698;13.322;2022-08-03T01:20:57;15.20;99.90
62904;DHT22;49000;50.698;13.322;2022-08-03T01:23:52;15.10;99.90
62904;DHT22;49000;50.698;13.322;2022-08-03T01:26:52;15.10;99.90
62904;DHT22;49000;50.698;13.322;2022-08-03T01:29:55;15.10;99.90
62904;DHT22;49000;50.698;13.322;2022-08-03T01:32:27;15.10;99.90
62904;DHT22;49000;50.698;13.322;2022-08-03T01:35:15;15.00;99.90
62904;DHT22;49000;50.698;13.322;2022-08-03T01:37:44;14.90;99.90
62904;DHT22;49000;50.698;13.322;2022-08-03T01:40:13;14.90;99.90
62904;DHT22;49000;50.698;13.322;2022-08-03T01:42:40;14.90;99.90
62904;DHT22;49000;50.698;13.322;2022-08-03T01:45:09;14.80;99.90
62904;DHT22;49000;50.698;13.322;2022-08-03T01:47:36;14.70;99.90
62904;DHT22;49000;50.698;13.322;2022-08-03T01:50:03;14.70;99.90
62904;DHT22;49000;50.698;13.322;2022-08-03T01:52:31;14.60;99.90
62904;DHT22;49000;50.698;13.322;2022-08-03T01:54:58;14.60;99.90
62904;DHT22;49000;50.698;13.322;2022-08-03T01:57:24;14.60;99.90
62904;DHT22;49000;50.698;13.322;2022-08-03T01:59:54;14.60;99.90
62904;DHT22;49000;50.698;13.322;2022-08-03T02:02:21;14.60;99.90
62904;DHT22;49000;50.698;13.322;2022-08-03T02:04:49;14.50;99.90
62904;DHT22;49000;50.698;13.322;2022-08-03T02:07:16;14.50;99.90
62904;DHT22;49000;50.698;13.322;2022-08-03T02:09:44;14.50;99.90
62904;DHT22;49000;50.698;13.322;2022-08-03T02:12:12;14.50;99.90
62904;DHT22;49000;50.698;13.322;2022-08-03T02:14:40;14.50;99.90
62904;DHT22;49000;50.698;13.322;2022-08-03T02:17:06;14.50;99.90
62904;DHT22;49000;50.698;13.322;2022-08-03T02:19:33;14.40;99.90
62904;DHT22;49000;50.698;13.322;2022-08-03T02:21:59;14.40;99.90
62904;DHT22;49000;50.698;13.322;2022-08-03T02:24:26;14.40;99.90
62904;DHT22;49000;50.698;13.322;2022-08-03T02:26:54;14.30;99.90
62904;DHT22;49000;50.698;13.322;2022-08-03T02:29:22;14.30;99.90
62904;DHT22;49000;50.698;13.322;2022-08-03T02:31:49;14.30;99.90
62904;DHT22;49000;50.698;13.322;2022-08-03T02:34:16;14.30;99.90
62904;DHT22;49000;50.698;13.322;2022-08-03T02:36:45;14.30;99.90
62904;DHT22;49000;50.698;13.322;2022-08-03T02:39:17;14.20;99.90
62904;DHT22;49000;50.698;13.322;2022-08-03T02:41:47;14.20;99.90
62904;DHT22;49000;50.698;13.322;2022-08-03T02:44:13;14.20;99.90
62904;DHT22;49000;50.698;13.322;2022-08-03T02:46:44;14.20;99.90
62904;DHT22;49000;50.698;13.322;2022-08-03T02:49:12;14.10;99.90
62904;DHT22;49000;50.698;13.322;2022-08-03T02:51:39;14.10;99.90
62904;DHT22;49000;50.698;13.322;2022-08-03T02:54:07;14.10;99.90
62904;DHT22;49000;50.698;13.322;2022-08-03T02:56:34;14.00;99.90
62904;DHT22;49000;50.698;13.322;2022-08-03T02:59:00;14.00;99.90
62904;DHT22;49000;50.698;13.322;2022-08-03T03:01:28;14.00;99.90
62904;DHT22;49000;50.698;13.322;2022-08-03T03:03:55;14.00;99.90
62904;DHT22;49000;50.698;13.322;2022-08-03T03:06:23;13.90;99.90
62904;DHT22;49000;50.698;13.322;2022-08-03T03:08:50;13.90;99.90
62904;DHT22;49000;50.698;13.322;2022-08-03T03:11:18;13.90;99.90
62904;DHT22;49000;50.698;13.322;2022-08-03T03:13:45;13.80;99.90
62904;DHT22;49000;50.698;13.322;2022-08-03T03:16:13;13.80;99.90
62904;DHT22;49000;50.698;13.322;2022-08-03T03:18:40;13.80;99.90
62904;DHT22;49000;50.698;13.322;2022-08-03T03:21:08;13.80;99.90
62904;DHT22;49000;50.698;13.322;2022-08-03T03:23:36;13.80;99.90
62904;DHT22;49000;50.698;13.322;2022-08-03T03:26:02;13.80;99.90
62904;DHT22;49000;50.698;13.322;2022-08-03T03:28:28;13.70;99.90
62904;DHT22;49000;50.698;13.322;2022-08-03T03:30:54;13.70;99.90
62904;DHT22;49000;50.698;13.322;2022-08-03T03:33:21;13.70;99.90
62904;DHT22;49000;50.698;13.322;2022-08-03T03:35:47;13.60;99.90
62904;DHT22;49000;50.698;13.322;2022-08-03T03:38:13;13.60;99.90
62904;DHT22;49000;50.698;13.322;2022-08-03T03:40:38;13.60;99.90
62904;DHT22;49000;50.698;13.322;2022-08-03T03:43:08;13.60;99.90
62904;DHT22;49000;50.698;13.322;2022-08-03T03:45:34;13.60;99.90
62904;DHT22;49000;50.698;13.322;2022-08-03T03:48:01;13.60;99.90
62904;DHT22;49000;50.698;13.322;2022-08-03T03:50:27;13.50;99.90
62904;DHT22;49000;50.698;13.322;2022-08-03T03:52:54;13.50;99.90
62904;DHT22;49000;50.698;13.322;2022-08-03T03:55:19;13.50;99.90
62904;DHT22;49000;50.698;13.322;2022-08-03T03:57:45;13.50;99.90
62904;DHT22;49000;50.698;13.322;2022-08-03T04:00:12;13.50;99.90
62904;DHT22;49000;50.698;13.322;2022-08-03T04:02:38;13.50;99.90
62904;DHT22;49000;50.698;13.322;2022-08-03T04:05:04;13.50;99.90
62904;DHT22;49000;50.698;13.322;2022-08-03T04:08:00;13.50;99.90
62904;DHT22;49000;50.698;13.322;2022-08-03T04:11:05;13.50;99.90
62904;DHT22;49000;50.698;13.322;2022-08-03T04:13:36;13.50;99.90
62904;DHT22;49000;50.698;13.322;2022-08-03T04:16:03;13.50;99.90
62904;DHT22;49000;50.698;13.322;2022-08-03T04:18:31;13.50;99.90
62904;DHT22;49000;50.698;13.322;2022-08-03T04:21:00;13.50;99.90
62904;DHT22;49000;50.698;13.322;2022-08-03T04:23:30;13.60;99.90
62904;DHT22;49000;50.698;13.322;2022-08-03T04:25:58;13.50;99.90
62904;DHT22;49000;50.698;13.322;2022-08-03T04:28:26;13.60;99.90
62904;DHT22;49000;50.698;13.322;2022-08-03T04:30:53;13.60;99.90
62904;DHT22;49000;50.698;13.322;2022-08-03T04:33:21;13.60;99.90
62904;DHT22;49000;50.698;13.322;2022-08-03T04:35:49;13.60;99.90
62904;DHT22;49000;50.698;13.322;2022-08-03T04:38:17;13.60;99.90
62904;DHT22;49000;50.698;13.322;2022-08-03T04:40:45;13.70;99.90
62904;DHT22;49000;50.698;13.322;2022-08-03T04:43:12;13.70;99.90
62904;DHT22;49000;50.698;13.322;2022-08-03T04:45:40;13.70;99.90
62904;DHT22;49000;50.698;13.322;2022-08-03T04:48:06;13.70;99.90
62904;DHT22;49000;50.698;13.322;2022-08-03T04:50:32;13.80;99.90
62904;DHT22;49000;50.698;13.322;2022-08-03T04:52:58;13.80;99.90
62904;DHT22;49000;50.698;13.322;2022-08-03T04:55:28;13.90;99.90
62904;DHT22;49000;50.698;13.322;2022-08-03T04:57:53;13.90;99.90
62904;DHT22;49000;50.698;13.322;2022-08-03T05:00:19;13.90;99.90
62904;DHT22;49000;50.698;13.322;2022-08-03T05:02:45;14.00;99.90
62904;DHT22;49000;50.698;13.322;2022-08-03T05:05:10;14.00;99.90
62904;DHT22;49000;50.698;13.322;2022-08-03T05:07:36;14.10;99.90
62904;DHT22;49000;50.698;13.322;2022-08-03T05:10:06;14.10;99.90
62904;DHT22;49000;50.698;13.322;2022-08-03T05:12:32;14.20;99.90
62904;DHT22;49000;50.698;13.322;2022-08-03T05:14:57;14.20;99.90
62904;DHT22;49000;50.698;13.322;2022-08-03T05:17:23;14.20;99.90
62904;DHT22;49000;50.698;13.322;2022-08-03T05:19:48;14.30;99.90
62904;DHT22;49000;50.698;13.322;2022-08-03T05:22:14;14.30;99.90
62904;DHT22;49000;50.698;13.322;2022-08-03T05:24:39;14.40;99.90
62904;DHT22;49000;50.698;13.322;2022-08-03T05:27:05;14.40;99.90
62904;DHT22;49000;50.698;13.322;2022-08-03T05:29:30;14.50;99.90
62904;DHT22;49000;50.698;13.322;2022-08-03T05:31:56;14.60;99.90
62904;DHT22;49000;50.698;13.322;2022-08-03T05:34:21;14.70;99.90
62904;DHT22;49000;50.698;13.322;2022-08-03T05:36:47;14.80;99.90
62904;DHT22;49000;50.698;13.322;2022-08-03T05:39:12;14.90;99.90
62904;DHT22;49000;50.698;13.322;2022-08-03T05:41:37;15.10;99.90
62904;DHT22;49000;50.698;13.322;2022-08-03T05:44:03;15.30;99.90
62904;DHT22;49000;50.698;13.322;2022-08-03T05:46:29;15.50;99.90
62904;DHT22;49000;50.698;13.322;2022-08-03T05:48:54;15.60;99.90
62904;DHT22;49000;50.698;13.322;2022-08-03T05:51:20;15.90;99.90
62904;DHT22;49000;50.698;13.322;2022-08-03T05:53:45;16.10;99.90
62904;DHT22;49000;50.698;13.322;2022-08-03T05:56:11;16.30;99.90
62904;DHT22;49000;50.698;13.322;2022-08-03T05:58:37;16.50;99.90
62904;DHT22;49000;50.698;13.322;2022-08-03T06:01:02;16.80;99.90
62904;DHT22;49000;50.698;13.322;2022-08-03T06:03:28;16.90;99.90
62904;DHT22;49000;50.698;13.322;2022-08-03T06:05:53;17.20;99.90
62904;DHT22;49000;50.698;13.322;2022-08-03T06:08:22;17.40;99.90
62904;DHT22;49000;50.698;13.322;2022-08-03T06:10:48;17.60;99.90
62904;DHT22;49000;50.698;13.322;2022-08-03T06:13:14;17.90;99.90
62904;DHT22;49000;50.698;13.322;2022-08-03T06:15:40;18.20;99.90
62904;DHT22;49000;50.698;13.322;2022-08-03T06:18:06;18.50;99.90
62904;DHT22;49000;50.698;13.322;2022-08-03T06:20:32;18.60;99.90
62904;DHT22;49000;50.698;13.322;2022-08-03T06:22:58;18.90;99.90
62904;DHT22;49000;50.698;13.322;2022-08-03T06:25:24;19.10;99.90
62904;DHT22;49000;50.698;13.322;2022-08-03T06:27:50;19.30;99.90
62904;DHT22;49000;50.698;13.322;2022-08-03T06:30:15;19.60;99.90
62904;DHT22;49000;50.698;13.322;2022-08-03T06:32:41;19.90;99.90
62904;DHT22;49000;50.698;13.322;2022-08-03T06:35:08;20.10;99.90
62904;DHT22;49000;50.698;13.322;2022-08-03T06:37:44;20.30;99.90
62904;DHT22;49000;50.698;13.322;2022-08-03T06:40:11;20.60;99.90
62904;DHT22;49000;50.698;13.322;2022-08-03T06:42:37;20.80;99.90
62904;DHT22;49000;50.698;13.322;2022-08-03T06:45:03;21.00;99.90
62904;DHT22;49000;50.698;13.322;2022-08-03T06:47:30;21.30;99.90
62904;DHT22;49000;50.698;13.322;2022-08-03T06:49:56;21.50;99.90
62904;DHT22;49000;50.698;13.322;2022-08-03T06:52:21;21.80;99.90
62904;DHT22;49000;50.698;13.322;2022-08-03T06:54:47;22.00;99.90
62904;DHT22;49000;50.698;13.322;2022-08-03T06:57:12;22.20;99.90
62904;DHT22;49000;50.698;13.322;2022-08-03T06:59:38;22.50;99.90
62904;DHT22;49000;50.698;13.322;2022-08-03T07:02:04;22.70;99.90
62904;DHT22;49000;50.698;13.322;2022-08-03T07:04:29;22.90;99.90
62904;DHT22;49000;50.698;13.322;2022-08-03T07:06:55;23.10;99.90
62904;DHT22;49000;50.698;13.322;2022-08-03T07:09:21;23.30;99.90
62904;DHT22;49000;50.698;13.322;2022-08-03T07:11:46;23.60;99.90
62904;DHT22;49000;50.698;13.322;2022-08-03T07:14:12;23.80;99.90
62904;DHT22;49000;50.698;13.322;2022-08-03T07:16:38;24.20;98.20
62904;DHT22;49000;50.698;13.322;2022-08-03T07:19:03;24.30;99.90
62904;DHT22;49000;50.698;13.322;2022-08-03T07:21:29;24.50;98.90
62904;DHT22;49000;50.698;13.322;2022-08-03T07:23:54;24.80;92.40
62904;DHT22;49000;50.698;13.322;2022-08-03T07:26:19;25.00;79.80
62904;DHT22;49000;50.698;13.322;2022-08-03T07:28:45;25.20;64.70
62904;DHT22;49000;50.698;13.322;2022-08-03T07:31:11;25.40;58.60
62904;DHT22;49000;50.698;13.322;2022-08-03T07:33:36;25.70;44.20
62904;DHT22;49000;50.698;13.322;2022-08-03T07:36:02;26.00;33.40
62904;DHT22;49000;50.698;13.322;2022-08-03T07:38:27;26.10;21.80
62904;DHT22;49000;50.698;13.322;2022-08-03T07:40:54;26.30;18.90
62904;DHT22;49000;50.698;13.322;2022-08-03T07:43:19;26.40;22.30
62904;DHT22;49000;50.698;13.322;2022-08-03T07:45:45;26.60;12.50
62904;DHT22;49000;50.698;13.322;2022-08-03T07:48:10;26.40;12.20
62904;DHT22;49000;50.698;13.322;2022-08-03T07:50:36;26.50;12.50
62904;DHT22;49000;50.698;13.322;2022-08-03T07:53:01;26.60;11.00
62904;DHT22;49000;50.698;13.322;2022-08-03T07:55:27;26.80;7.00
62904;DHT22;49000;50.698;13.322;2022-08-03T07:58:13;27.00;10.10
62904;DHT22;49000;50.698;13.322;2022-08-03T08:00:42;27.10;6.70
62904;DHT22;49000;50.698;13.322;2022-08-03T08:03:09;27.20;4.80
62904;DHT22;49000;50.698;13.322;2022-08-03T08:05:36;27.60;5.50
62904;DHT22;49000;50.698;13.322;2022-08-03T08:08:02;27.70;3.90
62904;DHT22;49000;50.698;13.322;2022-08-03T08:10:28;28.00;1.00
62904;DHT22;49000;50.698;13.322;2022-08-03T08:12:54;28.00;1.00
62904;DHT22;49000;50.698;13.322;2022-08-03T08:15:20;28.00;1.00
62904;DHT22;49000;50.698;13.322;2022-08-03T08:17:51;27.90;1.00
62904;DHT22;49000;50.698;13.322;2022-08-03T08:20:20;27.90;1.00
62904;DHT22;49000;50.698;13.322;2022-08-03T08:22:46;28.50;1.00
62904;DHT22;49000;50.698;13.322;2022-08-03T08:25:12;29.00;1.00
62904;DHT22;49000;50.698;13.322;2022-08-03T08:27:55;29.00;1.00
62904;DHT22;49000;50.698;13.322;2022-08-03T08:30:22;29.50;1.00
62904;DHT22;49000;50.698;13.322;2022-08-03T08:32:49;29.50;1.00
62904;DHT22;49000;50.698;13.322;2022-08-03T08:35:15;29.30;1.00
62904;DHT22;49000;50.698;13.322;2022-08-03T08:37:40;28.80;1.00
62904;DHT22;49000;50.698;13.322;2022-08-03T08:40:07;28.90;1.00
62904;DHT22;49000;50.698;13.322;2022-08-03T08:42:33;29.20;1.00
62904;DHT22;49000;50.698;13.322;2022-08-03T08:45:01;29.30;1.00
62904;DHT22;49000;50.698;13.322;2022-08-03T08:47:30;29.40;1.00
62904;DHT22;49000;50.698;13.322;2022-08-03T08:49:57;29.70;1.00
62904;DHT22;49000;50.698;13.322;2022-08-03T08:52:25;29.80;1.00
62904;DHT22;49000;50.698;13.322;2022-08-03T08:54:54;30.20;1.00
62904;DHT22;49000;50.698;13.322;2022-08-03T08:57:22;30.30;1.00
62904;DHT22;49000;50.698;13.322;2022-08-03T08:59:48;30.00;1.00
62904;DHT22;49000;50.698;13.322;2022-08-03T09:02:14;30.20;1.00
62904;DHT22;49000;50.698;13.322;2022-08-03T09:04:39;30.50;1.00
62904;DHT22;49000;50.698;13.322;2022-08-03T09:07:05;30.50;1.00
62904;DHT22;49000;50.698;13.322;2022-08-03T09:09:31;30.50;1.00
62904;DHT22;49000;50.698;13.322;2022-08-03T09:11:56;30.60;1.00
62904;DHT22;49000;50.698;13.322;2022-08-03T09:14:22;30.80;1.00
62904;DHT22;49000;50.698;13.322;2022-08-03T09:16:58;30.70;1.00
62904;DHT22;49000;50.698;13.322;2022-08-03T09:19:32;30.30;1.00
62904;DHT22;49000;50.698;13.322;2022-08-03T09:22:15;30.30;1.00
62904;DHT22;49000;50.698;13.322;2022-08-03T09:25:04;30.40;1.00
62904;DHT22;49000;50.698;13.322;2022-08-03T09:27:41;30.80;1.00
62904;DHT22;49000;50.698;13.322;2022-08-03T09:30:13;31.00;1.00
62904;DHT22;49000;50.698;13.322;2022-08-03T09:32:39;31.30;1.00
62904;DHT22;49000;50.698;13.322;2022-08-03T09:35:04;31.50;1.00
62904;DHT22;49000;50.698;13.322;2022-08-03T09:37:30;31.40;1.00
62904;DHT22;49000;50.698;13.322;2022-08-03T09:39:55;31.80;1.00
62904;DHT22;49000;50.698;13.322;2022-08-03T09:42:21;32.40;1.00
62904;DHT22;49000;50.698;13.322;2022-08-03T09:44:49;33.00;1.00
62904;DHT22;49000;50.698;13.322;2022-08-03T09:47:29;33.10;1.00
62904;DHT22;49000;50.698;13.322;2022-08-03T09:50:06;32.90;1.00
62904;DHT22;49000;50.698;13.322;2022-08-03T09:52:37;32.60;1.00
62904;DHT22;49000;50.698;13.322;2022-08-03T09:55:11;32.30;1.00
62904;DHT22;49000;50.698;13.322;2022-08-03T09:57:37;32.10;1.00
62904;DHT22;49000;50.698;13.322;2022-08-03T10:00:06;31.70;1.00
62904;DHT22;49000;50.698;13.322;2022-08-03T10:02:34;32.20;1.00
62904;DHT22;49000;50.698;13.322;2022-08-03T10:05:00;32.60;1.00
62904;DHT22;49000;50.698;13.322;2022-08-03T10:07:25;32.80;1.00
62904;DHT22;49000;50.698;13.322;2022-08-03T10:09:59;32.30;1.00
62904;DHT22;49000;50.698;13.322;2022-08-03T10:12:26;32.50;1.00
62904;DHT22;49000;50.698;13.322;2022-08-03T10:14:52;32.70;1.00
62904;DHT22;49000;50.698;13.322;2022-08-03T10:17:20;32.70;1.00
62904;DHT22;49000;50.698;13.322;2022-08-03T10:19:46;32.10;1.00
62904;DHT22;49000;50.698;13.322;2022-08-03T10:22:27;32.50;1.00
62904;DHT22;49000;50.698;13.322;2022-08-03T10:25:08;32.60;1.00
62904;DHT22;49000;50.698;13.322;2022-08-03T10:27:37;32.70;1.00
62904;DHT22;49000;50.698;13.322;2022-08-03T10:30:07;33.50;1.00
62904;DHT22;49000;50.698;13.322;2022-08-03T10:32:33;33.90;1.00
62904;DHT22;49000;50.698;13.322;2022-08-03T10:35:08;34.00;1.00
62904;DHT22;49000;50.698;13.322;2022-08-03T10:37:41;34.50;1.00
62904;DHT22;49000;50.698;13.322;2022-08-03T10:40:11;34.60;1.00
62904;DHT22;49000;50.698;13.322;2022-08-03T10:42:37;34.50;1.00
62904;DHT22;49000;50.698;13.322;2022-08-03T10:45:05;34.50;1.00
62904;DHT22;49000;50.698;13.322;2022-08-03T10:47:32;34.60;1.00
62904;DHT22;49000;50.698;13.322;2022-08-03T10:49:58;34.90;1.00
62904;DHT22;49000;50.698;13.322;2022-08-03T10:52:25;35.20;1.00
62904;DHT22;49000;50.698;13.322;2022-08-03T10:54:50;35.00;1.00
62904;DHT22;49000;50.698;13.322;2022-08-03T10:57:52;34.60;1.00
62904;DHT22;49000;50.698;13.322;2022-08-03T11:00:25;35.00;1.00
62904;DHT22;49000;50.698;13.322;2022-08-03T11:03:12;34.80;1.00
62904;DHT22;49000;50.698;13.322;2022-08-03T11:05:43;34.80;1.00
62904;DHT22;49000;50.698;13.322;2022-08-03T11:08:21;34.50;1.00
62904;DHT22;49000;50.698;13.322;2022-08-03T11:10:48;34.30;1.00
62904;DHT22;49000;50.698;13.322;2022-08-03T11:13:16;34.40;1.00
62904;DHT22;49000;50.698;13.322;2022-08-03T11:15:44;34.70;1.00
62904;DHT22;49000;50.698;13.322;2022-08-03T11:18:11;34.60;1.00
62904;DHT22;49000;50.698;13.322;2022-08-03T11:23:10;35.20;1.00
62904;DHT22;49000;50.698;13.322;2022-08-03T11:26:37;35.30;1.00
62904;DHT22;49000;50.698;13.322;2022-08-03T11:28:45;35.70;1.00
62904;DHT22;49000;50.698;13.322;2022-08-03T11:34:04;36.30;1.00
62904;DHT22;49000;50.698;13.322;2022-08-03T11:36:32;36.90;1.00
62904;DHT22;49000;50.698;13.322;2022-08-03T11:39:16;37.20;1.00
62904;DHT22;49000;50.698;13.322;2022-08-03T11:41:41;37.40;1.00
62904;DHT22;49000;50.698;13.322;2022-08-03T11:44:07;37.10;1.00
62904;DHT22;49000;50.698;13.322;2022-08-03T11:46:36;36.80;1.00
62904;DHT22;49000;50.698;13.322;2022-08-03T11:49:05;36.60;1.00
62904;DHT22;49000;50.698;13.322;2022-08-03T11:51:34;36.00;1.00
62904;DHT22;49000;50.698;13.322;2022-08-03T11:54:02;36.20;1.00
62904;DHT22;49000;50.698;13.322;2022-08-03T11:56:46;36.50;1.00
62904;DHT22;49000;50.698;13.322;2022-08-03T11:59:12;36.40;1.00
62904;DHT22;49000;50.698;13.322;2022-08-03T12:01:37;36.60;1.00
62904;DHT22;49000;50.698;13.322;2022-08-03T12:04:05;36.50;1.00
62904;DHT22;49000;50.698;13.322;2022-08-03T12:06:30;36.80;1.00
62904;DHT22;49000;50.698;13.322;2022-08-03T12:09:16;36.90;1.00
62904;DHT22;49000;50.698;13.322;2022-08-03T12:11:41;37.60;1.00
62904;DHT22;49000;50.698;13.322;2022-08-03T12:14:07;36.70;1.00
62904;DHT22;49000;50.698;13.322;2022-08-03T12:16:32;35.90;1.00
62904;DHT22;49000;50.698;13.322;2022-08-03T12:19:00;36.40;1.00
62904;DHT22;49000;50.698;13.322;2022-08-03T12:21:27;37.40;1.00
62904;DHT22;49000;50.698;13.322;2022-08-03T12:24:01;38.00;1.00
62904;DHT22;49000;50.698;13.322;2022-08-03T12:26:28;38.40;1.00
62904;DHT22;49000;50.698;13.322;2022-08-03T12:28:54;38.40;1.00
62904;DHT22;49000;50.698;13.322;2022-08-03T12:31:20;37.40;1.00
62904;DHT22;49000;50.698;13.322;2022-08-03T12:36:23;36.80;1.00
62904;DHT22;49000;50.698;13.322;2022-08-03T12:38:59;36.40;1.00
62904;DHT22;49000;50.698;13.322;2022-08-03T12:41:33;36.50;1.00
62904;DHT22;49000;50.698;13.322;2022-08-03T12:44:00;35.80;1.00
62904;DHT22;49000;50.698;13.322;2022-08-03T12:46:32;35.60;1.00
62904;DHT22;49000;50.698;13.322;2022-08-03T12:49:09;35.70;1.00
62904;DHT22;49000;50.698;13.322;2022-08-03T12:54:06;36.70;1.00
62904;DHT22;49000;50.698;13.322;2022-08-03T12:56:32;37.10;1.00
62904;DHT22;49000;50.698;13.322;2022-08-03T12:58:58;37.40;1.00
62904;DHT22;49000;50.698;13.322;2022-08-03T13:01:24;37.10;1.00
62904;DHT22;49000;50.698;13.322;2022-08-03T13:03:52;36.30;1.00
62904;DHT22;49000;50.698;13.322;2022-08-03T13:06:22;36.50;1.00
62904;DHT22;49000;50.698;13.322;2022-08-03T13:08:49;37.60;1.00
62904;DHT22;49000;50.698;13.322;2022-08-03T13:11:26;38.50;1.00
62904;DHT22;49000;50.698;13.322;2022-08-03T13:13:53;39.40;1.00
62904;DHT22;49000;50.698;13.322;2022-08-03T13:16:19;39.80;1.00
62904;DHT22;49000;50.698;13.322;2022-08-03T13:18:47;39.10;1.00
62904;DHT22;49000;50.698;13.322;2022-08-03T13:21:16;38.10;1.00
62904;DHT22;49000;50.698;13.322;2022-08-03T13:23:43;38.00;1.00
62904;DHT22;49000;50.698;13.322;2022-08-03T13:26:09;37.60;1.00
62904;DHT22;49000;50.698;13.322;2022-08-03T13:28:35;38.10;1.00
62904;DHT22;49000;50.698;13.322;2022-08-03T13:31:01;38.10;1.00
62904;DHT22;49000;50.698;13.322;2022-08-03T13:33:26;37.70;1.00
62904;DHT22;49000;50.698;13.322;2022-08-03T13:35:53;37.00;1.00
62904;DHT22;49000;50.698;13.322;2022-08-03T13:38:19;36.90;1.00
62904;DHT22;49000;50.698;13.322;2022-08-03T13:40:44;37.80;1.00
62904;DHT22;49000;50.698;13.322;2022-08-03T13:43:10;38.10;1.00
62904;DHT22;49000;50.698;13.322;2022-08-03T13:45:35;38.60;1.00
62904;DHT22;49000;50.698;13.322;2022-08-03T13:48:01;38.90;1.00
62904;DHT22;49000;50.698;13.322;2022-08-03T13:50:26;38.50;1.00
62904;DHT22;49000;50.698;13.322;2022-08-03T13:52:52;37.50;1.00
62904;DHT22;49000;50.698;13.322;2022-08-03T13:55:17;37.70;1.00
62904;DHT22;49000;50.698;13.322;2022-08-03T13:57:43;37.50;1.00
62904;DHT22;49000;50.698;13.322;2022-08-03T14:00:09;37.10;1.00
62904;DHT22;49000;50.698;13.322;2022-08-03T14:02:34;37.50;1.00
62904;DHT22;49000;50.698;13.322;2022-08-03T14:05:00;37.80;1.00
62904;DHT22;49000;50.698;13.322;2022-08-03T14:07:25;37.90;1.00
62904;DHT22;49000;50.698;13.322;2022-08-03T14:09:51;37.40;1.00
62904;DHT22;49000;50.698;13.322;2022-08-03T14:12:16;37.20;1.00
62904;DHT22;49000;50.698;13.322;2022-08-03T14:14:42;37.20;1.00
62904;DHT22;49000;50.698;13.322;2022-08-03T14:17:07;37.70;1.00
62904;DHT22;49000;50.698;13.322;2022-08-03T14:19:33;39.10;1.00
62904;DHT22;49000;50.698;13.322;2022-08-03T14:21:58;40.10;1.00
62904;DHT22;49000;50.698;13.322;2022-08-03T14:24:24;40.70;1.00
62904;DHT22;49000;50.698;13.322;2022-08-03T14:26:49;39.90;1.00
62904;DHT22;49000;50.698;13.322;2022-08-03T14:29:15;39.80;1.00
62904;DHT22;49000;50.698;13.322;2022-08-03T14:31:40;38.90;1.00
62904;DHT22;49000;50.698;13.322;2022-08-03T14:34:06;38.50;1.00
62904;DHT22;49000;50.698;13.322;2022-08-03T14:36:31;38.20;1.00
62904;DHT22;49000;50.698;13.322;2022-08-03T14:38:57;38.50;1.00
62904;DHT22;49000;50.698;13.322;2022-08-03T14:41:22;37.90;1.00
62904;DHT22;49000;50.698;13.322;2022-08-03T14:43:48;37.90;1.00
62904;DHT22;49000;50.698;13.322;2022-08-03T14:46:13;38.40;1.00
62904;DHT22;49000;50.698;13.322;2022-08-03T14:48:39;38.50;1.00
62904;DHT22;49000;50.698;13.322;2022-08-03T14:51:04;38.50;1.00
62904;DHT22;49000;50.698;13.322;2022-08-03T14:53:30;38.10;1.00
62904;DHT22;49000;50.698;13.322;2022-08-03T14:55:55;37.80;1.00
62904;DHT22;49000;50.698;13.322;2022-08-03T14:58:22;38.60;1.00
62904;DHT22;49000;50.698;13.322;2022-08-03T15:00:50;39.00;1.00
62904;DHT22;49000;50.698;13.322;2022-08-03T15:03:18;39.10;1.00
62904;DHT22;49000;50.698;13.322;2022-08-03T15:05:54;39.30;1.00
62904;DHT22;49000;50.698;13.322;2022-08-03T15:08:20;39.80;1.00
62904;DHT22;49000;50.698;13.322;2022-08-03T15:10:47;39.70;1.00
62904;DHT22;49000;50.698;13.322;2022-08-03T15:13:13;40.20;1.00
62904;DHT22;49000;50.698;13.322;2022-08-03T15:15:39;39.90;1.00
62904;DHT22;49000;50.698;13.322;2022-08-03T15:18:05;39.40;1.00
62904;DHT22;49000;50.698;13.322;2022-08-03T15:20:30;39.30;1.00
62904;DHT22;49000;50.698;13.322;2022-08-03T15:22:56;39.90;1.00
62904;DHT22;49000;50.698;13.322;2022-08-03T15:25:21;40.60;1.00
62904;DHT22;49000;50.698;13.322;2022-08-03T15:27:47;40.80;1.00
62904;DHT22;49000;50.698;13.322;2022-08-03T15:30:13;41.00;1.00
62904;DHT22;49000;50.698;13.322;2022-08-03T15:32:38;40.90;1.00
62904;DHT22;49000;50.698;13.322;2022-08-03T15:35:04;41.00;1.00
62904;DHT22;49000;50.698;13.322;2022-08-03T15:37:30;41.80;1.00
62904;DHT22;49000;50.698;13.322;2022-08-03T15:39:55;42.20;1.00
62904;DHT22;49000;50.698;13.322;2022-08-03T15:42:21;42.90;1.00
62904;DHT22;49000;50.698;13.322;2022-08-03T15:44:46;43.00;1.00